createdAt,value
2023-08-20T00:01:18.388Z,30.50
2023-08-20T00:03:45.090Z,30.50
2023-08-20T00:06:11.719Z,30.53
2023-08-20T00:08:38.310Z,30.51
2023-08-20T00:11:04.915Z,30.54
2023-08-20T00:13:31.518Z,30.55
2023-08-20T00:15:58.174Z,30.52
2023-08-20T00:18:24.794Z,30.51
2023-08-20T00:20:51.407Z,30.49
2023-08-20T00:23:17.995Z,30.49
2023-08-20T00:25:44.605Z,30.51
2023-08-20T00:28:11.217Z,30.52
2023-08-20T00:30:37.810Z,30.55
2023-08-20T00:33:04.430Z,30.57
2023-08-20T00:35:31.110Z,30.50
2023-08-20T00:37:57.701Z,30.52
2023-08-20T00:40:24.320Z,30.50
2023-08-20T00:42:50.915Z,30.49
2023-08-20T00:45:17.535Z,30.51
2023-08-20T00:47:44.192Z,30.52
2023-08-20T00:50:10.824Z,30.49
2023-08-20T00:52:37.480Z,30.48
2023-08-20T00:55:04.081Z,30.49
2023-08-20T00:57:30.694Z,30.55
2023-08-20T00:59:57.315Z,30.58
2023-08-20T01:02:23.905Z,30.57
2023-08-20T01:04:50.566Z,30.51
2023-08-20T01:07:17.202Z,30.56
2023-08-20T01:09:43.795Z,30.53
2023-08-20T01:12:10.394Z,30.52
2023-08-20T01:14:37.113Z,30.55
2023-08-20T01:17:03.727Z,30.55
2023-08-20T01:19:30.444Z,30.55
2023-08-20T01:21:57.039Z,30.54
2023-08-20T01:24:23.649Z,30.55
2023-08-20T01:26:50.248Z,30.55
2023-08-20T01:29:16.835Z,30.56
2023-08-20T01:31:43.435Z,30.54
2023-08-20T01:34:10.050Z,30.55
2023-08-20T01:36:36.668Z,30.55
2023-08-20T01:39:03.287Z,30.55
2023-08-20T01:41:29.883Z,30.55
2023-08-20T01:43:56.484Z,30.54
2023-08-20T01:46:23.167Z,30.55
2023-08-20T01:48:49.861Z,30.51
2023-08-20T01:51:16.467Z,30.52
2023-08-20T01:53:43.068Z,30.53
2023-08-20T01:56:09.674Z,30.55
2023-08-20T01:58:36.279Z,30.51
2023-08-20T02:01:02.945Z,30.50
2023-08-20T02:03:29.574Z,30.51
2023-08-20T02:05:56.191Z,30.50
2023-08-20T02:08:22.809Z,30.49
2023-08-20T02:10:49.414Z,30.48
2023-08-20T02:13:16.113Z,30.48
2023-08-20T02:15:42.712Z,30.48
2023-08-20T02:18:09.405Z,30.48
2023-08-20T02:20:36.057Z,30.48
2023-08-20T02:23:02.667Z,30.46
2023-08-20T02:25:29.265Z,30.44
2023-08-20T02:27:55.899Z,30.45
2023-08-20T02:30:22.501Z,30.42
2023-08-20T02:32:49.257Z,30.43
2023-08-20T02:35:15.918Z,30.43
2023-08-20T02:37:42.554Z,30.41
2023-08-20T02:40:09.179Z,30.42
2023-08-20T02:42:35.790Z,30.42
2023-08-20T02:45:02.393Z,30.41
2023-08-20T02:47:29.000Z,30.39
2023-08-20T02:49:55.612Z,30.40
2023-08-20T02:52:22.215Z,30.41
2023-08-20T02:54:48.836Z,30.39
2023-08-20T02:57:15.470Z,30.37
2023-08-20T02:59:42.076Z,30.37
2023-08-20T03:02:08.672Z,30.37
2023-08-20T03:04:35.303Z,30.36
2023-08-20T03:07:01.939Z,30.39
2023-08-20T03:09:28.560Z,30.43
2023-08-20T03:11:55.284Z,30.47
2023-08-20T03:14:21.881Z,30.44
2023-08-20T03:16:48.515Z,30.45
2023-08-20T03:19:15.109Z,30.47
2023-08-20T03:21:41.724Z,30.48
2023-08-20T03:24:08.327Z,30.48
2023-08-20T03:26:34.928Z,30.50
2023-08-20T03:29:01.518Z,30.49
2023-08-20T03:31:28.135Z,30.52
2023-08-20T03:33:54.741Z,30.50
2023-08-20T03:36:21.371Z,30.50
2023-08-20T03:38:47.955Z,30.50
2023-08-20T03:41:14.544Z,30.51
2023-08-20T03:43:41.159Z,30.52
2023-08-20T03:46:07.775Z,30.50
2023-08-20T03:48:34.434Z,30.50
2023-08-20T03:51:01.035Z,30.53
2023-08-20T03:53:27.705Z,30.53
2023-08-20T03:55:54.325Z,30.52
2023-08-20T03:58:20.915Z,30.51
2023-08-20T04:00:47.509Z,30.50
2023-08-20T04:03:14.119Z,30.51
2023-08-20T04:05:40.741Z,30.51
2023-08-20T04:08:07.362Z,30.50
2023-08-20T04:10:34.054Z,30.51
2023-08-20T04:13:00.657Z,30.49
2023-08-20T04:15:27.253Z,30.52
2023-08-20T04:17:53.900Z,30.52
2023-08-20T04:20:20.608Z,30.52
2023-08-20T04:22:47.199Z,30.52
2023-08-20T04:25:13.812Z,30.51
2023-08-20T04:27:40.454Z,30.50
2023-08-20T04:30:07.115Z,30.49
2023-08-20T04:32:33.820Z,30.47
2023-08-20T04:35:00.474Z,30.46
2023-08-20T04:37:27.073Z,30.44
2023-08-20T04:39:53.697Z,30.43
2023-08-20T04:42:20.308Z,30.43
2023-08-20T04:44:46.916Z,30.40
2023-08-20T04:47:13.517Z,30.40
2023-08-20T04:49:40.119Z,30.36
2023-08-20T04:52:06.736Z,30.35
2023-08-20T04:54:33.347Z,30.35
2023-08-20T04:56:59.957Z,30.36
2023-08-20T04:59:26.600Z,30.37
2023-08-20T05:01:53.225Z,30.36
2023-08-20T05:04:19.860Z,30.35
2023-08-20T05:06:46.446Z,30.33
2023-08-20T05:09:13.041Z,30.34
2023-08-20T05:11:39.646Z,30.33
2023-08-20T05:14:06.262Z,30.34
2023-08-20T05:16:32.893Z,30.30
2023-08-20T05:18:59.664Z,30.31
2023-08-20T05:21:26.861Z,30.32
2023-08-20T05:23:53.600Z,30.32
2023-08-20T05:26:20.240Z,30.29
2023-08-20T05:28:46.847Z,30.28
2023-08-20T05:31:13.498Z,30.29
2023-08-20T05:33:40.127Z,30.29
2023-08-20T05:36:06.754Z,30.28
2023-08-20T05:38:33.361Z,30.29
2023-08-20T05:40:59.975Z,30.29
2023-08-20T05:43:26.592Z,30.32
2023-08-20T05:45:53.226Z,30.35
2023-08-20T05:48:19.874Z,30.38
2023-08-20T05:50:46.504Z,30.41
2023-08-20T05:53:13.106Z,30.43
2023-08-20T05:55:39.707Z,30.43
2023-08-20T05:58:06.310Z,30.46
2023-08-20T06:00:32.907Z,30.37
2023-08-20T06:02:59.539Z,30.29
2023-08-20T06:05:26.137Z,30.28
2023-08-20T06:07:52.766Z,30.33
2023-08-20T06:10:19.372Z,30.36
2023-08-20T06:12:45.967Z,30.39
2023-08-20T06:15:12.613Z,30.40
2023-08-20T06:17:39.821Z,30.41
2023-08-20T06:20:06.872Z,30.44
2023-08-20T06:22:33.500Z,30.48
2023-08-20T06:25:00.112Z,30.46
2023-08-20T06:27:26.724Z,30.46
2023-08-20T06:29:53.319Z,30.49
2023-08-20T06:32:19.913Z,30.50
2023-08-20T06:34:46.516Z,30.48
2023-08-20T06:37:13.105Z,30.51
2023-08-20T06:39:39.710Z,30.51
2023-08-20T06:42:06.320Z,30.51
2023-08-20T06:44:33.068Z,30.53
2023-08-20T06:46:59.663Z,30.54
2023-08-20T06:49:26.251Z,30.56
2023-08-20T06:51:52.851Z,30.55
2023-08-20T06:54:19.465Z,30.56
2023-08-20T06:56:47.245Z,30.57
2023-08-20T06:59:15.231Z,30.52
2023-08-20T07:01:41.875Z,30.53
2023-08-20T07:04:08.496Z,30.59
2023-08-20T07:06:35.091Z,30.58
2023-08-20T07:09:01.679Z,30.57
2023-08-20T07:11:28.276Z,30.50
2023-08-20T07:13:54.927Z,30.48
2023-08-20T07:16:21.635Z,30.43
2023-08-20T07:18:48.264Z,30.44
2023-08-20T07:21:14.876Z,30.40
2023-08-20T07:23:41.496Z,30.38
2023-08-20T07:26:08.107Z,30.37
2023-08-20T07:28:34.727Z,30.39
2023-08-20T07:31:03.335Z,30.36
2023-08-20T07:33:30.699Z,30.36
2023-08-20T07:35:57.310Z,30.33
2023-08-20T07:38:23.914Z,30.32
2023-08-20T07:40:50.529Z,30.35
2023-08-20T07:43:17.124Z,30.34
2023-08-20T07:45:43.747Z,30.35
2023-08-20T07:48:10.381Z,30.35
2023-08-20T07:50:37.005Z,30.35
2023-08-20T07:53:03.587Z,30.37
2023-08-20T07:55:30.209Z,30.34
2023-08-20T07:57:56.810Z,30.34
2023-08-20T08:00:23.398Z,30.34
2023-08-20T08:02:50.060Z,30.30
2023-08-20T08:05:16.704Z,30.31
2023-08-20T08:07:43.499Z,30.30
2023-08-20T08:10:10.136Z,30.27
2023-08-20T08:12:36.840Z,30.32
2023-08-20T08:15:03.445Z,30.33
2023-08-20T08:17:30.065Z,30.30
2023-08-20T08:19:56.678Z,30.32
2023-08-20T08:22:23.299Z,30.35
2023-08-20T08:24:49.897Z,30.40
2023-08-20T08:27:16.535Z,30.43
2023-08-20T08:29:43.126Z,30.49
2023-08-20T08:32:09.731Z,30.51
2023-08-20T08:34:36.327Z,30.56
2023-08-20T08:37:02.929Z,30.53
2023-08-20T08:39:29.534Z,30.55
2023-08-20T08:41:56.134Z,30.55
2023-08-20T08:44:22.729Z,30.54
2023-08-20T08:46:49.392Z,30.59
2023-08-20T08:49:15.986Z,30.59
2023-08-20T08:51:42.587Z,30.55
2023-08-20T08:54:09.190Z,30.59
2023-08-20T08:56:35.817Z,30.55
2023-08-20T08:59:02.405Z,30.53
2023-08-20T09:01:29.357Z,30.56
2023-08-20T09:03:56.985Z,30.59
2023-08-20T09:06:23.584Z,30.58
2023-08-20T09:08:50.192Z,30.60
2023-08-20T09:11:16.796Z,30.63
2023-08-20T09:13:43.424Z,30.66
2023-08-20T09:16:10.063Z,30.67
2023-08-20T09:18:36.675Z,30.64
2023-08-20T09:21:03.266Z,30.64
2023-08-20T09:23:29.863Z,30.64
2023-08-20T09:25:56.556Z,30.64
2023-08-20T09:28:23.155Z,30.65
2023-08-20T09:30:49.776Z,30.66
2023-08-20T09:33:16.389Z,30.63
2023-08-20T09:35:42.993Z,30.63
2023-08-20T09:38:09.585Z,30.64
2023-08-20T09:40:36.180Z,30.61
2023-08-20T09:43:02.781Z,30.61
2023-08-20T09:45:29.399Z,30.61
2023-08-20T09:47:56.017Z,30.65
2023-08-20T09:50:22.662Z,30.67
2023-08-20T09:52:49.260Z,30.68
2023-08-20T09:55:15.877Z,30.62
2023-08-20T09:57:45.926Z,30.68
2023-08-20T10:00:13.444Z,30.58
2023-08-20T10:02:40.372Z,30.50
2023-08-20T10:05:07.004Z,30.45
2023-08-20T10:07:34.139Z,30.52
2023-08-20T10:10:01.117Z,30.58
2023-08-20T10:12:27.718Z,30.55
2023-08-20T10:14:54.302Z,30.58
2023-08-20T10:17:20.901Z,30.58
2023-08-20T10:19:47.512Z,30.62
2023-08-20T10:22:14.108Z,30.62
2023-08-20T10:24:40.700Z,30.62
2023-08-20T10:27:07.315Z,30.63
2023-08-20T10:29:33.945Z,30.60
2023-08-20T10:32:00.584Z,30.59
2023-08-20T10:34:27.195Z,30.63
2023-08-20T10:36:53.793Z,30.65
2023-08-20T10:39:20.411Z,30.66
2023-08-20T10:41:47.008Z,30.66
2023-08-20T10:44:13.600Z,30.64
2023-08-20T10:46:40.196Z,30.67
2023-08-20T10:49:06.802Z,30.66
2023-08-20T10:51:33.418Z,30.66
2023-08-20T10:54:00.015Z,30.63
2023-08-20T10:56:26.617Z,30.61
2023-08-20T10:58:53.223Z,30.63
2023-08-20T11:01:19.883Z,30.61
2023-08-20T11:03:46.578Z,30.65
2023-08-20T11:06:13.233Z,30.62
2023-08-20T11:08:39.827Z,30.64
2023-08-20T11:11:06.418Z,30.66
2023-08-20T11:13:33.040Z,30.65
2023-08-20T11:15:59.745Z,30.67
2023-08-20T11:18:26.373Z,30.67
2023-08-20T11:20:53.028Z,30.67
2023-08-20T11:23:19.655Z,30.70
2023-08-20T11:25:46.246Z,30.69
2023-08-20T11:28:12.840Z,30.74
2023-08-20T11:30:39.441Z,30.72
2023-08-20T11:33:06.078Z,30.73
2023-08-20T11:35:32.697Z,30.73
2023-08-20T11:37:59.295Z,30.74
2023-08-20T11:40:25.890Z,30.75
2023-08-20T11:42:52.477Z,30.75
2023-08-20T11:45:19.102Z,30.78
2023-08-20T11:47:45.767Z,30.79
2023-08-20T11:50:12.385Z,30.77
2023-08-20T11:52:38.997Z,30.79
2023-08-20T11:55:05.612Z,30.80
2023-08-20T11:57:32.232Z,30.82
2023-08-20T11:59:58.856Z,30.82
2023-08-20T12:02:38.236Z,30.81
2023-08-20T12:05:06.854Z,30.88
2023-08-20T12:07:33.800Z,30.88
2023-08-20T12:10:00.634Z,30.89
2023-08-20T12:12:27.249Z,30.89
2023-08-20T12:14:53.852Z,30.89
2023-08-20T12:17:20.485Z,30.91
2023-08-20T12:19:47.095Z,30.91
2023-08-20T12:22:13.688Z,30.93
2023-08-20T12:24:42.061Z,30.90
2023-08-20T12:27:08.826Z,30.85
2023-08-20T12:29:35.446Z,30.86
2023-08-20T12:32:02.065Z,30.86
2023-08-20T12:34:28.670Z,30.84
2023-08-20T12:36:55.275Z,30.85
2023-08-20T12:39:21.873Z,30.84
2023-08-20T12:41:48.485Z,30.84
2023-08-20T12:44:15.081Z,30.84
2023-08-20T12:46:41.696Z,30.83
2023-08-20T12:49:08.324Z,30.87
2023-08-20T12:51:34.934Z,30.88
2023-08-20T12:54:01.538Z,30.89
2023-08-20T12:56:28.148Z,30.88
2023-08-20T12:58:54.744Z,30.89
2023-08-20T13:01:21.404Z,30.93
2023-08-20T13:03:48.117Z,30.88
2023-08-20T13:06:14.746Z,30.89
2023-08-20T13:08:41.358Z,30.90
2023-08-20T13:11:07.977Z,30.88
2023-08-20T13:13:34.625Z,30.89
2023-08-20T13:16:01.310Z,30.92
2023-08-20T13:18:27.956Z,30.94
2023-08-20T13:20:54.629Z,30.95
2023-08-20T13:23:21.230Z,30.93
2023-08-20T13:25:47.836Z,30.89
2023-08-20T13:28:14.465Z,30.95
2023-08-20T13:30:41.086Z,30.94
2023-08-20T13:33:07.736Z,30.95
2023-08-20T13:35:34.373Z,30.96
2023-08-20T13:38:00.978Z,30.98
2023-08-20T13:40:27.602Z,31.05
2023-08-20T13:42:54.198Z,31.09
2023-08-20T13:45:20.790Z,31.11
2023-08-20T13:47:48.527Z,31.13
2023-08-20T13:50:15.295Z,31.15
2023-08-20T13:52:41.945Z,31.15
2023-08-20T13:55:08.551Z,31.15
2023-08-20T13:57:35.153Z,31.16
2023-08-20T14:00:01.763Z,31.37
2023-08-20T14:02:28.415Z,31.37
2023-08-20T14:04:55.230Z,31.44
2023-08-20T14:07:21.920Z,31.37
2023-08-20T14:09:48.539Z,31.31
2023-08-20T14:12:15.165Z,31.29
2023-08-20T14:14:41.767Z,31.26
2023-08-20T14:17:08.352Z,31.26
2023-08-20T14:19:34.954Z,31.25
2023-08-20T14:22:01.547Z,31.27
2023-08-20T14:24:28.154Z,31.27
2023-08-20T14:26:54.768Z,31.28
2023-08-20T14:29:21.371Z,31.27
2023-08-20T14:31:47.969Z,31.28
2023-08-20T14:34:14.585Z,31.27
2023-08-20T14:36:41.219Z,31.28
2023-08-20T14:39:07.824Z,31.28
2023-08-20T14:41:34.427Z,31.29
2023-08-20T14:44:01.038Z,31.28
2023-08-20T14:46:27.818Z,31.28
2023-08-20T14:48:54.457Z,31.32
2023-08-20T14:51:21.068Z,31.34
2023-08-20T14:53:47.658Z,31.36
2023-08-20T14:56:14.261Z,31.36
2023-08-20T14:58:40.875Z,31.38
2023-08-20T15:01:07.509Z,31.35
2023-08-20T15:03:34.196Z,31.37
2023-08-20T15:06:00.810Z,31.36
2023-08-20T15:08:27.412Z,31.31
2023-08-20T15:10:54.013Z,31.33
2023-08-20T15:13:20.606Z,31.31
2023-08-20T15:15:47.209Z,31.30
2023-08-20T15:18:13.859Z,31.27
2023-08-20T15:20:40.507Z,31.25
2023-08-20T15:23:07.106Z,31.25
2023-08-20T15:25:33.716Z,31.22
2023-08-20T15:28:00.320Z,31.25
2023-08-20T15:30:27.023Z,31.24
2023-08-20T15:32:53.692Z,31.25
2023-08-20T15:35:20.337Z,31.25
2023-08-20T15:37:46.956Z,31.24
2023-08-20T15:40:13.562Z,31.26
2023-08-20T15:42:40.314Z,31.28
2023-08-20T15:45:06.935Z,31.32
2023-08-20T15:47:33.616Z,31.30
2023-08-20T15:50:00.321Z,31.29
2023-08-20T15:52:26.929Z,31.27
2023-08-20T15:54:53.529Z,31.28
2023-08-20T15:57:20.133Z,31.30
2023-08-20T15:59:46.729Z,31.31
2023-08-20T16:02:13.338Z,31.30
2023-08-20T16:04:39.931Z,31.31
2023-08-20T16:07:06.534Z,31.30
2023-08-20T16:09:42.146Z,31.32
2023-08-20T16:12:10.545Z,31.33
2023-08-20T16:14:37.278Z,31.34
2023-08-20T16:17:03.896Z,31.36
2023-08-20T16:19:30.547Z,31.35
2023-08-20T16:21:57.201Z,31.34
2023-08-20T16:24:23.839Z,31.36
2023-08-20T16:26:50.444Z,31.36
2023-08-20T16:29:17.048Z,31.35
2023-08-20T16:31:43.664Z,31.37
2023-08-20T16:34:10.284Z,31.38
2023-08-20T16:36:36.901Z,31.39
2023-08-20T16:39:03.531Z,31.41
2023-08-20T16:41:30.123Z,31.41
2023-08-20T16:43:56.726Z,31.41
2023-08-20T16:46:23.322Z,31.40
2023-08-20T16:48:49.914Z,31.42
2023-08-20T16:51:16.509Z,31.42
2023-08-20T16:53:43.155Z,31.39
2023-08-20T16:56:09.792Z,31.40
2023-08-20T16:58:36.396Z,31.41
2023-08-20T17:01:03.039Z,31.40
2023-08-20T17:03:29.696Z,31.44
2023-08-20T17:05:56.333Z,31.45
2023-08-20T17:08:22.930Z,31.43
2023-08-20T17:10:49.547Z,31.47
2023-08-20T17:13:16.232Z,31.47
2023-08-20T17:15:43.243Z,31.45
2023-08-20T17:18:10.405Z,31.45
2023-08-20T17:20:37.035Z,31.44
2023-08-20T17:23:03.636Z,31.45
2023-08-20T17:25:30.226Z,31.43
2023-08-20T17:27:56.830Z,31.43
2023-08-20T17:30:23.414Z,31.47
2023-08-20T17:32:50.055Z,31.48
2023-08-20T17:35:16.658Z,31.44
2023-08-20T17:37:43.259Z,31.42
2023-08-20T17:40:09.879Z,31.42
2023-08-20T17:42:36.651Z,31.43
2023-08-20T17:45:03.359Z,31.43
2023-08-20T17:47:29.992Z,31.45
2023-08-20T17:49:56.609Z,31.43
2023-08-20T17:52:23.190Z,31.39
2023-08-20T17:54:49.930Z,31.38
2023-08-20T17:57:16.552Z,31.37
2023-08-20T17:59:43.149Z,31.34
2023-08-20T18:02:09.784Z,31.32
2023-08-20T18:04:36.384Z,31.37
2023-08-20T18:07:02.967Z,31.35
2023-08-20T18:09:29.583Z,31.35
2023-08-20T18:11:56.198Z,31.33
2023-08-20T18:14:22.799Z,31.31
2023-08-20T18:16:49.403Z,31.34
2023-08-20T18:19:16.046Z,31.31
2023-08-20T18:21:42.632Z,31.36
2023-08-20T18:24:09.228Z,31.35
2023-08-20T18:26:35.826Z,31.31
2023-08-20T18:29:02.433Z,31.32
2023-08-20T18:31:29.034Z,31.33
2023-08-20T18:33:55.635Z,31.36
2023-08-20T18:36:23.226Z,31.35
2023-08-20T18:38:50.609Z,31.35
2023-08-20T18:41:17.210Z,31.32
2023-08-20T18:43:43.819Z,31.31
2023-08-20T18:46:10.426Z,31.35
2023-08-20T18:48:37.037Z,31.33
2023-08-20T18:51:03.633Z,31.36
2023-08-20T18:53:30.251Z,31.32
2023-08-20T18:55:56.856Z,31.35
2023-08-20T18:58:23.473Z,31.37
2023-08-20T19:00:50.101Z,31.38
2023-08-20T19:03:16.849Z,31.40
2023-08-20T19:05:43.512Z,31.38
2023-08-20T19:08:10.139Z,31.37
2023-08-20T19:10:36.739Z,31.40
2023-08-20T19:13:03.328Z,31.41
2023-08-20T19:15:29.911Z,31.40
2023-08-20T19:17:56.568Z,31.40
2023-08-20T19:20:23.197Z,31.37
2023-08-20T19:22:49.813Z,31.43
2023-08-20T19:25:16.424Z,31.39
2023-08-20T19:27:43.046Z,31.37
2023-08-20T19:30:09.652Z,31.36
2023-08-20T19:32:36.528Z,31.39
2023-08-20T19:35:03.383Z,31.37
2023-08-20T19:37:29.989Z,31.43
2023-08-20T19:39:56.605Z,31.35
2023-08-20T19:42:23.196Z,31.19
2023-08-20T19:44:49.813Z,31.05
2023-08-20T19:47:16.408Z,30.99
2023-08-20T19:49:43.006Z,30.89
2023-08-20T19:52:09.609Z,30.84
2023-08-20T19:54:36.211Z,30.88
2023-08-20T19:57:02.834Z,30.74
2023-08-20T19:59:29.435Z,30.75
2023-08-20T20:01:56.053Z,30.76
2023-08-20T20:04:22.745Z,30.84
2023-08-20T20:06:49.424Z,30.84
2023-08-20T20:09:16.028Z,30.93
2023-08-20T20:11:42.634Z,31.04
2023-08-20T20:14:09.262Z,31.08
2023-08-20T20:16:35.985Z,31.04
2023-08-20T20:19:02.614Z,31.02
2023-08-20T20:21:29.229Z,31.01
2023-08-20T20:23:55.956Z,31.03
2023-08-20T20:26:22.574Z,30.98
2023-08-20T20:28:49.167Z,30.99
2023-08-20T20:31:15.835Z,30.98
2023-08-20T20:33:42.457Z,31.08
2023-08-20T20:36:10.135Z,31.00
2023-08-20T20:38:37.043Z,30.82
2023-08-20T20:41:03.659Z,30.82
2023-08-20T20:43:30.252Z,30.80
2023-08-20T20:45:56.856Z,30.82
2023-08-20T20:48:23.451Z,30.83
2023-08-20T20:50:50.073Z,30.85
2023-08-20T20:53:16.686Z,30.81
2023-08-20T20:55:43.287Z,30.81
2023-08-20T20:58:09.900Z,30.72
2023-08-20T21:00:36.519Z,30.65
2023-08-20T21:03:03.122Z,30.67
2023-08-20T21:05:29.779Z,30.68
2023-08-20T21:07:56.380Z,30.77
2023-08-20T21:10:22.976Z,30.94
2023-08-20T21:12:49.568Z,31.06
2023-08-20T21:15:16.174Z,31.17
2023-08-20T21:17:42.804Z,31.24
2023-08-20T21:20:09.399Z,31.29
2023-08-20T21:22:36.276Z,31.35
2023-08-20T21:25:03.181Z,31.39
2023-08-20T21:27:29.806Z,31.44
2023-08-20T21:29:56.397Z,31.41
2023-08-20T21:32:23.003Z,31.45
2023-08-20T21:34:49.609Z,31.49
2023-08-20T21:37:16.258Z,31.48
2023-08-20T21:39:42.863Z,31.48
2023-08-20T21:42:12.257Z,31.48
2023-08-20T21:44:38.862Z,31.51
2023-08-20T21:47:05.500Z,31.46
2023-08-20T21:49:32.125Z,31.46
2023-08-20T21:51:58.746Z,31.41
2023-08-20T21:54:25.347Z,31.42
2023-08-20T21:56:51.998Z,31.40
2023-08-20T21:59:18.615Z,31.40
2023-08-20T22:01:45.284Z,31.41
2023-08-20T22:04:11.920Z,31.39
2023-08-20T22:06:38.521Z,31.38
2023-08-20T22:09:05.127Z,31.37
2023-08-20T22:11:31.748Z,31.37
2023-08-20T22:13:58.339Z,31.36
2023-08-20T22:16:25.019Z,31.37
2023-08-20T22:18:51.663Z,31.35
2023-08-20T22:21:18.244Z,31.36
2023-08-20T22:23:44.850Z,31.39
2023-08-20T22:26:11.448Z,31.39
2023-08-20T22:28:38.075Z,31.38
2023-08-20T22:31:04.715Z,31.37
2023-08-20T22:33:31.347Z,31.37
2023-08-20T22:35:57.961Z,31.38
2023-08-20T22:38:24.548Z,31.39
2023-08-20T22:40:51.161Z,31.39
2023-08-20T22:43:17.757Z,31.40
2023-08-20T22:45:44.389Z,31.37
2023-08-20T22:48:11.056Z,31.38
2023-08-20T22:50:37.685Z,31.38
2023-08-20T22:53:04.308Z,31.39
2023-08-20T22:55:32.739Z,31.40
2023-08-20T22:57:59.567Z,31.39
2023-08-20T23:00:26.198Z,31.38
2023-08-20T23:02:52.908Z,31.38
2023-08-20T23:05:19.550Z,31.39
2023-08-20T23:07:46.158Z,31.37
2023-08-20T23:10:12.770Z,31.36
2023-08-20T23:12:39.610Z,31.37
2023-08-20T23:15:06.577Z,31.39
2023-08-20T23:17:33.220Z,31.37
2023-08-20T23:19:59.862Z,31.38
2023-08-20T23:22:26.509Z,31.34
2023-08-20T23:24:53.120Z,31.34
2023-08-20T23:27:19.721Z,31.34
2023-08-20T23:29:46.317Z,31.37
2023-08-20T23:32:12.926Z,31.34
2023-08-20T23:34:39.534Z,31.33
2023-08-20T23:37:06.136Z,31.34
2023-08-20T23:39:32.764Z,31.33
2023-08-20T23:41:59.357Z,31.33
2023-08-20T23:44:25.987Z,31.33
2023-08-20T23:46:52.693Z,31.33
2023-08-20T23:49:19.336Z,31.33
2023-08-20T23:51:45.952Z,31.32
2023-08-20T23:54:12.552Z,31.30
2023-08-20T23:56:39.175Z,31.31
2023-08-20T23:59:05.782Z,31.31
